createdAt,value
2023-04-15T00:01:25.063Z,100742.81
2023-04-15T00:03:57.970Z,100750.75
2023-04-15T00:06:29.721Z,100632.75
2023-04-15T00:08:59.129Z,100751.59
2023-04-15T00:11:28.955Z,100742.72
2023-04-15T00:13:59.109Z,100754.28
2023-04-15T00:16:29.104Z,100741.16
2023-04-15T00:18:59.544Z,100754.97
2023-04-15T00:21:31.221Z,100757.34
2023-04-15T00:24:01.701Z,100744.88
2023-04-15T00:26:31.614Z,100723.09
2023-04-15T00:29:02.132Z,100754.00
2023-04-15T00:31:33.249Z,100749.06
2023-04-15T00:34:04.237Z,100745.22
2023-04-15T00:36:35.996Z,100755.56
2023-04-15T00:39:06.686Z,100752.97
2023-04-15T00:41:39.396Z,100756.13
2023-04-15T00:44:09.716Z,100764.19
2023-04-15T00:46:40.846Z,100756.59
2023-04-15T00:49:10.797Z,100737.09
2023-04-15T00:51:42.330Z,100754.19
2023-04-15T00:54:13.005Z,100758.75
2023-04-15T00:56:43.788Z,100758.81
2023-04-15T00:59:13.094Z,100745.28
2023-04-15T01:01:43.368Z,100757.47
2023-04-15T01:04:13.316Z,100764.31
2023-04-15T01:06:43.898Z,100760.22
2023-04-15T01:09:13.216Z,100760.09
2023-04-15T01:11:42.543Z,100757.63
2023-04-15T01:14:12.079Z,100761.09
2023-04-15T01:16:43.322Z,100760.34
2023-04-15T01:19:13.826Z,100653.84
2023-04-15T01:21:45.667Z,100764.22
2023-04-15T01:24:19.328Z,100758.00
2023-04-15T01:26:50.697Z,100635.28
2023-04-15T01:29:20.049Z,100759.75
2023-04-15T01:31:53.223Z,100763.06
2023-04-15T01:34:22.485Z,100760.34
2023-04-15T01:36:55.951Z,100761.38
2023-04-15T01:39:25.030Z,100649.13
2023-04-15T01:41:55.662Z,100762.06
2023-04-15T01:44:26.609Z,100760.25
2023-04-15T01:46:55.796Z,100765.63
2023-04-15T01:49:24.785Z,100769.00
2023-04-15T01:51:55.949Z,100768.16
2023-04-15T01:54:25.231Z,100768.47
2023-04-15T01:56:56.861Z,100766.47
2023-04-15T01:59:27.586Z,100771.22
2023-04-15T02:01:59.192Z,100764.72
2023-04-15T02:04:29.929Z,100774.38
2023-04-15T02:07:02.259Z,100748.88
2023-04-15T02:09:31.448Z,100746.78
2023-04-15T02:12:04.425Z,100777.28
2023-04-15T02:14:34.193Z,100767.34
2023-04-15T02:17:07.522Z,100776.69
2023-04-15T02:19:36.484Z,100780.66
2023-04-15T02:22:07.733Z,100782.91
2023-04-15T02:24:36.976Z,100784.66
2023-04-15T02:27:07.755Z,100784.44
2023-04-15T02:29:39.028Z,100789.47
2023-04-15T02:32:10.022Z,100793.47
2023-04-15T02:34:41.409Z,100800.69
2023-04-15T02:37:11.568Z,100794.53
2023-04-15T02:39:40.753Z,100803.47
2023-04-15T02:42:13.671Z,100801.34
2023-04-15T02:44:43.705Z,100812.69
2023-04-15T02:47:13.275Z,100809.13
2023-04-15T02:49:42.453Z,100810.09
2023-04-15T02:52:11.639Z,100814.28
2023-04-15T02:54:40.722Z,100818.25
2023-04-15T02:57:10.866Z,100813.63
2023-04-15T02:59:41.586Z,100826.50
2023-04-15T03:02:10.821Z,100823.22
2023-04-15T03:04:40.130Z,100825.56
2023-04-15T03:07:09.367Z,100825.38
2023-04-15T03:09:40.581Z,100824.53
2023-04-15T03:12:09.889Z,100827.97
2023-04-15T03:14:40.298Z,100833.09
2023-04-15T03:17:09.503Z,100742.56
2023-04-15T03:19:38.628Z,100835.91
2023-04-15T03:22:07.870Z,100836.78
2023-04-15T03:24:36.906Z,100834.97
2023-04-15T03:27:06.730Z,100832.84
2023-04-15T03:29:36.575Z,100832.25
2023-04-15T03:32:07.427Z,100842.72
2023-04-15T03:34:37.250Z,100841.94
2023-04-15T03:37:07.192Z,100841.94
2023-04-15T03:39:36.224Z,100844.19
2023-04-15T03:42:05.699Z,100851.88
2023-04-15T03:44:34.613Z,100857.06
2023-04-15T03:47:07.801Z,100854.78
2023-04-15T03:49:39.327Z,100858.09
2023-04-15T03:52:08.466Z,100721.56
2023-04-15T03:54:38.013Z,100861.66
2023-04-15T03:57:07.236Z,100863.06
2023-04-15T03:59:36.637Z,100866.22
2023-04-15T04:02:07.342Z,100862.97
2023-04-15T04:04:36.588Z,100864.88
2023-04-15T04:07:06.002Z,100875.22
2023-04-15T04:09:35.164Z,100870.38
2023-04-15T04:12:04.727Z,100891.13
2023-04-15T04:14:33.830Z,100888.19
2023-04-15T04:17:02.958Z,100891.81
2023-04-15T04:19:33.550Z,100888.44
2023-04-15T04:22:02.793Z,100894.09
2023-04-15T04:24:31.733Z,100892.94
2023-04-15T04:27:01.077Z,100889.97
2023-04-15T04:29:32.099Z,100655.75
2023-04-15T04:32:01.498Z,100891.63
2023-04-15T04:34:32.856Z,100888.56
2023-04-15T04:37:02.664Z,100803.25
2023-04-15T04:39:32.986Z,100909.81
2023-04-15T04:42:03.205Z,100909.88
2023-04-15T04:44:32.686Z,100918.63
2023-04-15T04:47:02.211Z,100923.78
2023-04-15T04:49:35.732Z,100904.19
2023-04-15T04:52:05.194Z,100917.03
2023-04-15T04:54:34.829Z,100937.09
2023-04-15T04:57:04.392Z,100921.13
2023-04-15T04:59:34.104Z,100936.81
2023-04-15T05:02:03.546Z,100919.28
2023-04-15T05:04:35.769Z,100960.25
2023-04-15T05:07:06.758Z,100952.66
2023-04-15T05:09:37.392Z,100960.25
2023-04-15T05:12:15.106Z,100960.38
2023-04-15T05:14:44.245Z,100971.34
2023-04-15T05:17:15.629Z,100976.53
2023-04-15T05:19:46.046Z,100979.09
2023-04-15T05:22:15.260Z,100981.63
2023-04-15T05:24:44.266Z,100984.28
2023-04-15T05:27:13.258Z,100986.66
2023-04-15T05:29:43.942Z,100989.88
2023-04-15T05:32:13.064Z,100989.75
2023-04-15T05:34:45.724Z,100995.13
2023-04-15T05:37:14.774Z,101003.63
2023-04-15T05:39:44.205Z,101009.00
2023-04-15T05:42:13.198Z,100914.56
2023-04-15T05:44:42.249Z,101023.75
2023-04-15T05:47:11.617Z,101030.31
2023-04-15T05:49:40.839Z,101030.34
2023-04-15T05:52:11.354Z,101036.09
2023-04-15T05:54:40.680Z,101045.72
2023-04-15T05:57:12.660Z,101014.03
2023-04-15T05:59:42.407Z,101035.25
2023-04-15T06:02:11.759Z,101056.75
2023-04-15T06:04:40.668Z,101063.25
2023-04-15T06:07:11.097Z,101060.84
2023-04-15T06:09:39.840Z,101061.09
2023-04-15T06:12:12.329Z,101079.63
2023-04-15T06:14:41.400Z,101078.28
2023-04-15T06:17:10.376Z,101084.41
2023-04-15T06:19:39.189Z,101093.50
2023-04-15T06:22:08.151Z,101095.63
2023-04-15T06:24:38.262Z,101104.34
2023-04-15T06:27:07.122Z,101117.88
2023-04-15T06:29:35.881Z,101109.22
2023-04-15T06:32:04.634Z,101107.69
2023-04-15T06:34:33.413Z,101122.72
2023-04-15T06:37:02.999Z,101126.63
2023-04-15T06:39:33.840Z,101133.19
2023-04-15T06:42:06.263Z,101127.88
2023-04-15T06:44:35.056Z,101138.78
2023-04-15T06:47:04.339Z,101145.47
2023-04-15T06:49:33.764Z,101145.38
2023-04-15T06:52:02.932Z,101151.00
2023-04-15T06:54:31.992Z,101149.72
2023-04-15T06:57:00.729Z,101151.72
2023-04-15T06:59:35.769Z,101152.34
2023-04-15T07:02:07.023Z,101160.38
2023-04-15T07:04:35.819Z,101161.56
2023-04-15T07:07:06.472Z,101160.47
2023-04-15T07:09:35.541Z,101161.81
2023-04-15T07:12:04.756Z,101157.06
2023-04-15T07:14:37.847Z,101165.44
2023-04-15T07:17:06.842Z,101174.09
2023-04-15T07:19:36.149Z,101172.59
2023-04-15T07:22:04.981Z,101163.72
2023-04-15T07:24:33.876Z,101175.28
2023-04-15T07:27:04.244Z,101187.25
2023-04-15T07:29:33.625Z,101181.72
2023-04-15T07:32:04.969Z,101163.66
2023-04-15T07:34:34.134Z,101201.13
2023-04-15T07:37:04.049Z,101194.22
2023-04-15T07:39:37.131Z,101203.25
2023-04-15T07:42:06.602Z,101212.47
2023-04-15T07:44:36.340Z,101212.84
2023-04-15T07:47:09.587Z,101215.25
2023-04-15T07:49:38.636Z,101220.97
2023-04-15T07:52:07.396Z,101230.91
2023-04-15T07:54:38.906Z,101211.41
2023-04-15T07:57:07.979Z,101242.47
2023-04-15T07:59:36.658Z,101245.59
2023-04-15T08:02:09.941Z,101238.22
2023-04-15T08:04:39.510Z,101255.53
2023-04-15T08:07:08.378Z,101252.94
2023-04-15T08:09:37.099Z,101258.25
2023-04-15T08:12:06.494Z,101265.31
2023-04-15T08:14:35.240Z,101255.75
2023-04-15T08:17:04.247Z,101260.84
2023-04-15T08:19:34.454Z,101268.06
2023-04-15T08:22:03.624Z,101276.72
2023-04-15T08:24:32.967Z,101270.16
2023-04-15T08:27:04.303Z,101281.31
2023-04-15T08:29:33.914Z,101283.53
2023-04-15T08:32:03.109Z,101278.69
2023-04-15T08:34:32.111Z,101292.47
2023-04-15T08:37:07.125Z,101294.84
2023-04-15T08:39:35.910Z,101303.28
2023-04-15T08:42:17.932Z,101297.53
2023-04-15T08:44:48.501Z,101292.19
2023-04-15T08:47:21.749Z,101227.19
2023-04-15T08:49:54.248Z,101305.34
2023-04-15T08:52:26.352Z,101308.94
2023-04-15T08:54:59.790Z,101312.88
2023-04-15T08:57:29.986Z,101325.88
2023-04-15T08:59:59.288Z,101315.72
2023-04-15T09:02:29.331Z,101327.19
2023-04-15T09:04:58.573Z,101327.44
2023-04-15T09:07:29.281Z,101330.38
2023-04-15T09:09:59.163Z,101329.81
2023-04-15T09:12:28.753Z,101335.50
2023-04-15T09:14:59.340Z,101343.09
2023-04-15T09:17:29.318Z,101328.66
2023-04-15T09:20:10.475Z,101351.03
2023-04-15T09:22:41.602Z,101353.16
2023-04-15T09:25:29.785Z,101363.31
2023-04-15T09:28:01.740Z,101341.94
2023-04-15T09:30:31.842Z,101361.00
2023-04-15T09:33:08.094Z,101373.31
2023-04-15T09:35:38.560Z,101377.13
2023-04-15T09:38:12.919Z,101396.41
2023-04-15T09:40:44.249Z,101387.22
2023-04-15T09:43:17.937Z,101393.47
2023-04-15T09:45:49.569Z,101366.00
2023-04-15T09:48:21.972Z,101393.56
2023-04-15T09:50:53.684Z,101384.63
2023-04-15T09:53:25.156Z,101393.47
2023-04-15T09:55:55.227Z,101397.19
2023-04-15T09:58:25.166Z,101402.53
2023-04-15T10:00:55.483Z,101396.16
2023-04-15T10:03:26.076Z,101409.56
2023-04-15T10:05:57.253Z,101397.78
2023-04-15T10:08:29.633Z,101419.59
2023-04-15T10:11:01.998Z,101414.84
2023-04-15T10:13:36.155Z,101415.09
2023-04-15T10:16:08.720Z,101420.41
2023-04-15T10:18:41.845Z,101422.38
2023-04-15T10:21:11.075Z,101435.03
2023-04-15T10:23:41.287Z,101377.03
2023-04-15T10:26:12.791Z,101397.00
2023-04-15T10:28:41.726Z,101420.09
2023-04-15T10:31:15.051Z,101423.28
2023-04-15T10:33:44.645Z,101421.28
2023-04-15T10:36:13.891Z,101427.41
2023-04-15T10:38:46.923Z,101432.47
2023-04-15T10:41:21.569Z,101431.72
2023-04-15T10:43:53.042Z,101429.94
2023-04-15T10:46:37.337Z,101435.19
2023-04-15T10:49:12.276Z,101433.69
2023-04-15T10:51:45.634Z,101440.47
2023-04-15T10:54:18.682Z,101440.59
2023-04-15T10:56:47.465Z,101438.91
2023-04-15T10:59:17.748Z,101429.31
2023-04-15T11:01:54.255Z,101436.59
2023-04-15T11:04:55.107Z,101448.59
2023-04-15T11:07:41.180Z,101446.25
2023-04-15T11:10:31.070Z,101462.38
2023-04-15T11:13:04.677Z,101455.00
2023-04-15T11:15:35.205Z,101459.13
2023-04-15T11:18:10.989Z,101464.09
2023-04-15T11:20:41.833Z,101472.50
2023-04-15T11:23:15.243Z,101469.00
2023-04-15T11:25:45.007Z,101477.59
2023-04-15T11:28:15.416Z,101483.47
2023-04-15T11:30:44.743Z,101484.72
2023-04-15T11:33:14.705Z,101483.31
2023-04-15T11:35:44.109Z,101495.81
2023-04-15T11:38:14.364Z,101493.53
2023-04-15T11:40:46.745Z,101485.31
2023-04-15T11:43:20.861Z,101497.47
2023-04-15T11:45:54.653Z,101493.53
2023-04-15T11:48:25.664Z,101490.28
2023-04-15T11:50:56.685Z,101482.31
2023-04-15T11:53:38.554Z,101497.78
2023-04-15T11:56:09.200Z,101508.69
2023-04-15T11:58:40.739Z,101511.25
2023-04-15T12:01:09.629Z,101493.38
2023-04-15T12:03:43.529Z,101502.38
2023-04-15T12:06:16.765Z,101505.44
2023-04-15T12:09:02.447Z,101487.13
2023-04-15T12:11:39.697Z,101513.06
2023-04-15T12:14:12.860Z,101514.97
2023-04-15T12:16:50.068Z,101527.69
2023-04-15T12:19:25.953Z,101521.34
2023-04-15T12:22:00.681Z,101525.66
2023-04-15T12:24:32.793Z,101528.81
2023-04-15T12:27:04.317Z,101541.66
2023-04-15T12:29:36.211Z,101521.50
2023-04-15T12:32:09.487Z,101431.81
2023-04-15T12:34:39.717Z,101511.25
2023-04-15T12:37:11.326Z,101553.66
2023-04-15T12:39:41.562Z,101547.66
2023-04-15T12:42:11.332Z,101554.13
2023-04-15T12:44:41.984Z,101560.75
2023-04-15T12:47:11.945Z,101564.22
2023-04-15T12:49:43.385Z,101547.75
2023-04-15T12:52:12.141Z,101560.16
2023-04-15T12:54:40.962Z,101574.38
2023-04-15T12:57:09.719Z,101566.78
2023-04-15T12:59:38.876Z,101570.56
2023-04-15T13:02:09.353Z,101573.63
2023-04-15T13:04:38.189Z,101569.53
2023-04-15T13:07:09.177Z,101581.16
2023-04-15T13:09:37.857Z,101583.31
2023-04-15T13:12:06.970Z,101580.50
2023-04-15T13:14:35.766Z,101588.47
2023-04-15T13:17:10.307Z,101596.88
2023-04-15T13:19:40.107Z,101601.00
2023-04-15T13:22:09.437Z,101580.22
2023-04-15T13:24:39.309Z,101599.69
2023-04-15T13:27:08.406Z,101615.97
2023-04-15T13:29:37.170Z,101515.63
2023-04-15T13:32:09.674Z,101602.75
2023-04-15T13:34:43.899Z,101603.94
2023-04-15T13:37:13.097Z,101607.69
2023-04-15T13:39:42.682Z,101611.84
2023-04-15T13:42:13.433Z,101610.44
2023-04-15T13:44:43.193Z,101630.22
2023-04-15T13:47:16.105Z,101624.22
2023-04-15T13:49:45.424Z,101613.69
2023-04-15T13:52:17.245Z,101637.09
2023-04-15T13:54:47.637Z,101643.28
2023-04-15T13:57:37.032Z,101669.19
2023-04-15T14:00:08.158Z,101645.69
2023-04-15T14:02:38.982Z,101651.31
2023-04-15T14:05:09.885Z,101664.72
2023-04-15T14:07:39.590Z,101663.66
2023-04-15T14:10:09.938Z,101664.19
2023-04-15T14:12:39.460Z,101667.69
2023-04-15T14:15:09.935Z,101677.59
2023-04-15T14:17:43.478Z,101679.22
2023-04-15T14:20:14.042Z,101661.13
2023-04-15T14:22:44.430Z,101674.53
2023-04-15T14:25:23.110Z,101679.84
2023-04-15T14:28:02.117Z,101680.25
2023-04-15T14:30:34.392Z,101670.28
2023-04-15T14:33:07.975Z,101686.28
2023-04-15T14:35:40.831Z,101689.03
2023-04-15T14:38:12.961Z,101542.50
2023-04-15T14:40:45.483Z,101691.13
2023-04-15T14:43:18.029Z,101699.84
2023-04-15T14:46:16.788Z,101707.34
2023-04-15T14:48:47.351Z,101701.13
2023-04-15T14:51:16.297Z,101694.97
2023-04-15T14:53:45.038Z,101714.28
2023-04-15T14:56:14.022Z,101708.13
2023-04-15T14:58:45.264Z,101729.75
2023-04-15T15:01:14.224Z,101735.31
2023-04-15T15:03:43.781Z,101736.78
2023-04-15T15:06:14.123Z,101740.38
2023-04-15T15:08:42.843Z,101750.22
2023-04-15T15:11:11.817Z,101739.44
2023-04-15T15:13:40.717Z,101744.34
2023-04-15T15:16:10.620Z,101748.25
2023-04-15T15:18:40.193Z,101745.59
2023-04-15T15:21:08.930Z,101737.91
2023-04-15T15:23:39.221Z,101756.50
2023-04-15T15:26:07.966Z,101758.13
2023-04-15T15:28:38.912Z,101748.66
2023-04-15T15:31:07.698Z,101745.38
2023-04-15T15:33:36.416Z,101766.59
2023-04-15T15:36:08.321Z,101760.25
2023-04-15T15:38:38.467Z,101768.16
2023-04-15T15:41:07.332Z,101767.31
2023-04-15T15:43:36.091Z,101770.41
2023-04-15T15:46:05.021Z,101768.00
2023-04-15T15:48:33.729Z,101778.75
2023-04-15T15:51:04.307Z,101770.78
2023-04-15T15:53:33.008Z,101778.97
2023-04-15T15:56:04.138Z,101788.44
2023-04-15T15:58:32.946Z,101790.97
2023-04-15T16:01:02.053Z,101802.94
2023-04-15T16:03:31.219Z,101804.47
2023-04-15T16:05:59.979Z,101800.69
2023-04-15T16:08:28.889Z,101804.41
2023-04-15T16:10:57.671Z,101845.50
2023-04-15T16:13:29.999Z,101834.28
2023-04-15T16:15:59.712Z,101846.47
2023-04-15T16:18:30.680Z,101837.53
2023-04-15T16:21:02.416Z,101836.50
2023-04-15T16:23:32.242Z,101848.72
2023-04-15T16:26:02.035Z,101841.22
2023-04-15T16:28:34.554Z,101845.03
2023-04-15T16:31:03.421Z,101852.25
2023-04-15T16:33:32.196Z,101855.88
2023-04-15T16:36:01.116Z,101850.13
2023-04-15T16:38:29.880Z,101860.69
2023-04-15T16:41:02.447Z,101831.31
2023-04-15T16:43:31.401Z,101863.84
2023-04-15T16:46:02.885Z,101874.81
2023-04-15T16:48:31.897Z,101876.41
2023-04-15T16:51:01.203Z,101876.66
2023-04-15T16:53:30.096Z,101877.47
2023-04-15T16:56:02.367Z,101877.84
2023-04-15T16:58:31.374Z,101888.66
2023-04-15T17:01:00.643Z,101880.00
2023-04-15T17:03:32.107Z,101892.66
2023-04-15T17:06:01.299Z,101881.50
2023-04-15T17:08:30.106Z,101881.59
2023-04-15T17:10:59.205Z,101889.75
2023-04-15T17:13:28.060Z,101890.81
2023-04-15T17:15:56.917Z,101886.31
2023-04-15T17:18:26.088Z,101895.00
2023-04-15T17:20:56.473Z,101889.22
2023-04-15T17:23:27.401Z,101903.88
2023-04-15T17:25:56.974Z,101910.19
2023-04-15T17:28:25.792Z,101910.38
2023-04-15T17:30:54.670Z,101919.28
2023-04-15T17:33:55.358Z,101916.38
2023-04-15T17:36:14.775Z,101913.00
2023-04-15T17:38:43.438Z,101912.78
2023-04-15T17:41:12.388Z,101922.56
2023-04-15T17:43:41.151Z,101920.19
2023-04-15T17:46:10.386Z,101927.09
2023-04-15T17:48:39.157Z,101930.84
2023-04-15T17:51:07.954Z,101939.81
2023-04-15T17:53:38.653Z,101933.97
2023-04-15T17:56:08.272Z,101937.56
2023-04-15T17:58:40.273Z,101950.94
2023-04-15T18:01:09.057Z,101953.13
2023-04-15T18:03:38.471Z,101949.81
2023-04-15T18:06:07.611Z,101961.75
2023-04-15T18:08:37.058Z,101958.22
2023-04-15T18:11:08.003Z,101964.66
2023-04-15T18:13:37.572Z,101962.03
2023-04-15T18:16:07.289Z,101965.84
2023-04-15T18:18:36.174Z,101969.69
2023-04-15T18:21:07.553Z,101951.38
2023-04-15T18:23:36.666Z,101971.63
2023-04-15T18:26:05.528Z,101981.19
2023-04-15T18:28:36.150Z,101980.91
2023-04-15T18:31:06.090Z,101986.66
2023-04-15T18:33:35.890Z,101982.09
2023-04-15T18:36:04.971Z,101988.66
2023-04-15T18:38:34.045Z,102003.44
2023-04-15T18:41:02.778Z,102004.09
2023-04-15T18:43:31.430Z,102009.50
2023-04-15T18:46:01.951Z,102006.88
2023-04-15T18:48:30.922Z,102009.09
2023-04-15T18:50:59.885Z,102021.84
2023-04-15T18:53:28.865Z,102024.63
2023-04-15T18:55:58.087Z,102014.38
2023-04-15T18:58:27.109Z,101880.78
2023-04-15T19:00:55.854Z,102032.94
2023-04-15T19:03:26.049Z,102033.53
2023-04-15T19:05:55.855Z,102039.72
2023-04-15T19:08:24.644Z,102035.59
2023-04-15T19:10:54.247Z,102033.13
2023-04-15T19:13:23.251Z,102041.72
2023-04-15T19:15:51.933Z,102051.44
2023-04-15T19:18:20.669Z,102037.25
2023-04-15T19:20:52.261Z,102053.69
2023-04-15T19:23:21.017Z,102048.84
2023-04-15T19:25:49.758Z,102057.50
2023-04-15T19:28:21.468Z,102058.31
2023-04-15T19:30:52.412Z,102047.59
2023-04-15T19:33:21.324Z,102062.88
2023-04-15T19:35:51.470Z,102063.91
2023-04-15T19:38:20.198Z,102062.09
2023-04-15T19:40:48.852Z,102068.94
2023-04-15T19:43:17.595Z,102064.03
2023-04-15T19:45:49.354Z,102066.38
2023-04-15T19:48:18.171Z,102070.09
2023-04-15T19:50:46.842Z,102077.75
2023-04-15T19:53:19.312Z,102075.16
2023-04-15T19:55:48.498Z,102078.53
2023-04-15T19:58:17.296Z,102080.25
2023-04-15T20:00:46.078Z,102082.75
2023-04-15T20:03:14.935Z,102084.53
2023-04-15T20:05:43.690Z,102078.41
2023-04-15T20:08:12.454Z,102080.34
2023-04-15T20:10:42.715Z,102087.34
2023-04-15T20:13:11.399Z,102080.47
2023-04-15T20:15:40.185Z,102079.78
2023-04-15T20:18:08.957Z,102076.47
2023-04-15T20:20:40.656Z,102079.19
2023-04-15T20:23:09.377Z,102078.22
2023-04-15T20:25:38.134Z,102099.72
2023-04-15T20:28:08.140Z,102084.16
2023-04-15T20:30:39.522Z,102077.19
2023-04-15T20:33:08.387Z,102084.97
2023-04-15T20:35:37.314Z,102070.34
2023-04-15T20:38:06.574Z,102077.06
2023-04-15T20:40:35.431Z,102085.66
2023-04-15T20:43:04.271Z,102094.84
2023-04-15T20:45:34.628Z,102083.13
2023-04-15T20:48:03.551Z,102085.66
2023-04-15T20:50:33.237Z,102073.13
2023-04-15T20:53:02.030Z,102045.03
2023-04-15T20:55:31.550Z,102081.66
2023-04-15T20:58:00.437Z,101986.78
2023-04-15T21:00:29.429Z,102086.53
2023-04-15T21:03:00.131Z,101961.47
2023-04-15T21:05:31.324Z,102091.50
2023-04-15T21:08:00.057Z,102092.75
2023-04-15T21:10:33.983Z,102088.56
2023-04-15T21:13:03.054Z,102092.78
2023-04-15T21:15:31.886Z,102093.63
2023-04-15T21:18:02.067Z,102086.28
2023-04-15T21:20:31.139Z,102102.47
2023-04-15T21:22:59.867Z,102092.75
2023-04-15T21:25:28.571Z,102085.22
2023-04-15T21:27:57.305Z,102102.53
2023-04-15T21:30:26.089Z,102101.56
2023-04-15T21:32:55.778Z,102102.34
2023-04-15T21:35:26.153Z,102107.53
2023-04-15T21:37:54.938Z,102106.72
2023-04-15T21:40:23.742Z,102101.41
2023-04-15T21:42:52.740Z,102109.31
2023-04-15T21:45:21.777Z,102107.72
2023-04-15T21:48:05.122Z,102109.31
2023-04-15T21:50:38.648Z,102121.47
2023-04-15T21:53:08.963Z,102123.91
2023-04-15T21:55:40.368Z,102126.50
2023-04-15T21:58:09.149Z,102123.09
2023-04-15T22:00:40.749Z,102123.91
2023-04-15T22:03:09.852Z,102126.50
2023-04-15T22:05:40.225Z,102129.84
2023-04-15T22:08:09.029Z,102132.50
2023-04-15T22:10:39.263Z,102143.84
2023-04-15T22:13:10.889Z,102132.47
2023-04-15T22:15:40.006Z,102140.22
2023-04-15T22:18:08.719Z,102113.59
2023-04-15T22:20:37.475Z,102135.16
2023-04-15T22:23:09.857Z,102136.00
2023-04-15T22:25:41.017Z,102134.03
2023-04-15T22:28:09.691Z,102127.25
2023-04-15T22:30:39.309Z,102132.38
2023-04-15T22:33:11.210Z,102140.03
2023-04-15T22:35:39.922Z,102138.47
2023-04-15T22:38:10.004Z,102139.28
2023-04-15T22:40:41.220Z,102134.97
2023-04-15T22:43:09.962Z,102139.88
2023-04-15T22:45:38.668Z,102143.59
2023-04-15T22:48:09.999Z,102145.66
2023-04-15T22:50:39.029Z,102143.72
2023-04-15T22:53:09.159Z,102148.19
2023-04-15T22:55:37.860Z,102154.81
2023-04-15T22:58:08.783Z,102154.09
2023-04-15T23:00:37.466Z,102130.06
2023-04-15T23:03:06.409Z,102127.59
2023-04-15T23:05:36.122Z,102158.19
2023-04-15T23:08:07.024Z,102155.78
2023-04-15T23:10:39.950Z,102164.47
2023-04-15T23:13:11.199Z,102165.50
2023-04-15T23:15:39.966Z,102162.22
2023-04-15T23:18:08.784Z,102172.59
2023-04-15T23:20:37.662Z,102176.88
2023-04-15T23:23:06.475Z,102161.34
2023-04-15T23:25:37.339Z,102181.25
2023-04-15T23:28:06.608Z,102146.97
2023-04-15T23:30:35.383Z,102187.13
2023-04-15T23:33:04.465Z,102176.72
2023-04-15T23:35:33.141Z,102090.44
2023-04-15T23:38:01.894Z,102186.72
2023-04-15T23:40:30.548Z,102187.78
2023-04-15T23:43:00.663Z,102187.06
2023-04-15T23:45:29.880Z,102171.63
2023-04-15T23:47:58.655Z,102193.25
2023-04-15T23:50:28.265Z,102194.88
2023-04-15T23:52:57.021Z,102199.94
2023-04-15T23:55:26.138Z,102201.94
2023-04-15T23:57:55.183Z,102202.88
